sensor_id;sensor_type;location;lat;lon;timestamp;P1;durP1;ratioP1;P2;durP2;ratioP2
10617;SDS011;5356;43.526;26.534;2024-02-16T00:00:06;7.47;;;4.60;;
10617;SDS011;5356;43.526;26.534;2024-02-16T00:02:32;6.03;;;3.53;;
10617;SDS011;5356;43.526;26.534;2024-02-16T00:04:57;6.88;;;4.07;;
10617;SDS011;5356;43.526;26.534;2024-02-16T00:07:23;6.55;;;4.10;;
10617;SDS011;5356;43.526;26.534;2024-02-16T00:09:49;6.45;;;3.97;;
10617;SDS011;5356;43.526;26.534;2024-02-16T00:12:14;7.03;;;4.25;;
10617;SDS011;5356;43.526;26.534;2024-02-16T00:14:40;7.70;;;4.65;;
10617;SDS011;5356;43.526;26.534;2024-02-16T00:17:05;8.00;;;5.38;;
10617;SDS011;5356;43.526;26.534;2024-02-16T00:19:32;7.40;;;4.35;;
10617;SDS011;5356;43.526;26.534;2024-02-16T00:21:57;7.43;;;4.63;;
10617;SDS011;5356;43.526;26.534;2024-02-16T00:24:23;7.97;;;4.88;;
10617;SDS011;5356;43.526;26.534;2024-02-16T00:26:49;7.50;;;4.88;;
10617;SDS011;5356;43.526;26.534;2024-02-16T00:29:14;9.15;;;4.68;;
10617;SDS011;5356;43.526;26.534;2024-02-16T00:31:40;7.05;;;4.30;;
10617;SDS011;5356;43.526;26.534;2024-02-16T00:34:05;8.40;;;4.78;;
10617;SDS011;5356;43.526;26.534;2024-02-16T00:36:31;7.28;;;4.72;;
10617;SDS011;5356;43.526;26.534;2024-02-16T00:38:59;9.48;;;4.95;;
10617;SDS011;5356;43.526;26.534;2024-02-16T00:41:24;9.68;;;4.93;;
10617;SDS011;5356;43.526;26.534;2024-02-16T00:43:50;9.68;;;4.68;;
10617;SDS011;5356;43.526;26.534;2024-02-16T00:46:17;7.25;;;5.25;;
10617;SDS011;5356;43.526;26.534;2024-02-16T00:48:43;10.93;;;5.50;;
10617;SDS011;5356;43.526;26.534;2024-02-16T00:51:08;8.45;;;5.20;;
10617;SDS011;5356;43.526;26.534;2024-02-16T00:53:34;8.68;;;4.82;;
10617;SDS011;5356;43.526;26.534;2024-02-16T00:55:59;11.23;;;5.50;;
10617;SDS011;5356;43.526;26.534;2024-02-16T00:58:25;9.52;;;5.50;;
10617;SDS011;5356;43.526;26.534;2024-02-16T01:00:50;7.82;;;4.55;;
10617;SDS011;5356;43.526;26.534;2024-02-16T01:03:16;7.95;;;4.57;;
10617;SDS011;5356;43.526;26.534;2024-02-16T01:05:41;7.53;;;4.75;;
10617;SDS011;5356;43.526;26.534;2024-02-16T01:08:07;8.63;;;4.78;;
10617;SDS011;5356;43.526;26.534;2024-02-16T01:10:32;9.20;;;4.68;;
10617;SDS011;5356;43.526;26.534;2024-02-16T01:12:57;11.55;;;5.00;;
10617;SDS011;5356;43.526;26.534;2024-02-16T01:15:23;9.25;;;5.25;;
10617;SDS011;5356;43.526;26.534;2024-02-16T01:17:49;7.75;;;4.80;;
10617;SDS011;5356;43.526;26.534;2024-02-16T01:20:14;7.90;;;5.60;;
10617;SDS011;5356;43.526;26.534;2024-02-16T01:22:40;9.05;;;5.55;;
10617;SDS011;5356;43.526;26.534;2024-02-16T01:25:07;8.80;;;5.13;;
10617;SDS011;5356;43.526;26.534;2024-02-16T01:27:33;11.55;;;6.15;;
10617;SDS011;5356;43.526;26.534;2024-02-16T01:30:00;11.32;;;6.80;;
10617;SDS011;5356;43.526;26.534;2024-02-16T01:32:26;11.65;;;6.20;;
10617;SDS011;5356;43.526;26.534;2024-02-16T01:34:51;9.60;;;6.20;;
10617;SDS011;5356;43.526;26.534;2024-02-16T01:37:17;10.00;;;6.22;;
10617;SDS011;5356;43.526;26.534;2024-02-16T01:39:43;11.95;;;6.80;;
10617;SDS011;5356;43.526;26.534;2024-02-16T01:42:09;10.23;;;6.57;;
10617;SDS011;5356;43.526;26.534;2024-02-16T01:44:35;10.27;;;6.38;;
10617;SDS011;5356;43.526;26.534;2024-02-16T01:47:01;11.27;;;6.28;;
10617;SDS011;5356;43.526;26.534;2024-02-16T01:49:27;12.57;;;7.05;;
10617;SDS011;5356;43.526;26.534;2024-02-16T01:51:53;11.20;;;6.30;;
10617;SDS011;5356;43.526;26.534;2024-02-16T01:54:18;10.23;;;6.10;;
10617;SDS011;5356;43.526;26.534;2024-02-16T01:56:44;9.43;;;5.30;;
10617;SDS011;5356;43.526;26.534;2024-02-16T01:59:10;10.68;;;6.18;;
10617;SDS011;5356;43.526;26.534;2024-02-16T02:01:36;9.50;;;6.20;;
10617;SDS011;5356;43.526;26.534;2024-02-16T02:04:01;10.35;;;6.47;;
10617;SDS011;5356;43.526;26.534;2024-02-16T02:06:27;13.25;;;6.72;;
10617;SDS011;5356;43.526;26.534;2024-02-16T02:08:53;13.00;;;6.57;;
10617;SDS011;5356;43.526;26.534;2024-02-16T02:11:18;10.68;;;6.20;;
10617;SDS011;5356;43.526;26.534;2024-02-16T02:13:44;12.00;;;6.88;;
10617;SDS011;5356;43.526;26.534;2024-02-16T02:16:10;10.60;;;6.28;;
10617;SDS011;5356;43.526;26.534;2024-02-16T02:18:35;11.60;;;6.70;;
10617;SDS011;5356;43.526;26.534;2024-02-16T02:21:01;9.90;;;6.15;;
10617;SDS011;5356;43.526;26.534;2024-02-16T02:23:26;11.93;;;6.72;;
10617;SDS011;5356;43.526;26.534;2024-02-16T02:25:52;9.38;;;6.15;;
10617;SDS011;5356;43.526;26.534;2024-02-16T02:28:18;11.80;;;7.18;;
10617;SDS011;5356;43.526;26.534;2024-02-16T02:30:44;10.30;;;6.57;;
10617;SDS011;5356;43.526;26.534;2024-02-16T02:33:12;11.43;;;5.95;;
10617;SDS011;5356;43.526;26.534;2024-02-16T02:35:39;8.52;;;5.85;;
10617;SDS011;5356;43.526;26.534;2024-02-16T02:38:04;11.43;;;5.88;;
10617;SDS011;5356;43.526;26.534;2024-02-16T02:40:30;8.48;;;5.68;;
10617;SDS011;5356;43.526;26.534;2024-02-16T02:42:57;10.50;;;6.03;;
10617;SDS011;5356;43.526;26.534;2024-02-16T02:45:23;11.30;;;6.90;;
10617;SDS011;5356;43.526;26.534;2024-02-16T02:47:49;13.13;;;6.47;;
10617;SDS011;5356;43.526;26.534;2024-02-16T02:50:15;11.98;;;6.53;;
10617;SDS011;5356;43.526;26.534;2024-02-16T02:52:40;11.50;;;6.35;;
10617;SDS011;5356;43.526;26.534;2024-02-16T02:55:06;9.85;;;6.07;;
10617;SDS011;5356;43.526;26.534;2024-02-16T02:57:31;10.13;;;5.72;;
10617;SDS011;5356;43.526;26.534;2024-02-16T03:00:04;13.15;;;7.22;;
10617;SDS011;5356;43.526;26.534;2024-02-16T03:02:36;11.93;;;6.65;;
10617;SDS011;5356;43.526;26.534;2024-02-16T03:05:07;10.52;;;5.63;;
10617;SDS011;5356;43.526;26.534;2024-02-16T03:07:33;10.30;;;6.05;;
10617;SDS011;5356;43.526;26.534;2024-02-16T03:09:59;10.20;;;6.55;;
10617;SDS011;5356;43.526;26.534;2024-02-16T03:12:25;11.82;;;6.65;;
10617;SDS011;5356;43.526;26.534;2024-02-16T03:14:50;11.07;;;6.68;;
10617;SDS011;5356;43.526;26.534;2024-02-16T03:17:16;10.95;;;7.20;;
10617;SDS011;5356;43.526;26.534;2024-02-16T03:19:41;11.13;;;6.82;;
10617;SDS011;5356;43.526;26.534;2024-02-16T03:22:06;10.65;;;6.32;;
10617;SDS011;5356;43.526;26.534;2024-02-16T03:24:32;13.30;;;6.70;;
10617;SDS011;5356;43.526;26.534;2024-02-16T03:26:58;13.32;;;7.13;;
10617;SDS011;5356;43.526;26.534;2024-02-16T03:29:25;14.68;;;7.03;;
10617;SDS011;5356;43.526;26.534;2024-02-16T03:31:51;10.32;;;6.20;;
10617;SDS011;5356;43.526;26.534;2024-02-16T03:34:16;10.95;;;6.88;;
10617;SDS011;5356;43.526;26.534;2024-02-16T03:36:42;11.75;;;6.63;;
10617;SDS011;5356;43.526;26.534;2024-02-16T03:39:07;10.70;;;7.13;;
10617;SDS011;5356;43.526;26.534;2024-02-16T03:41:33;13.40;;;7.60;;
10617;SDS011;5356;43.526;26.534;2024-02-16T03:43:59;10.85;;;6.80;;
10617;SDS011;5356;43.526;26.534;2024-02-16T03:46:25;11.20;;;6.68;;
10617;SDS011;5356;43.526;26.534;2024-02-16T03:48:51;12.23;;;7.47;;
10617;SDS011;5356;43.526;26.534;2024-02-16T03:51:17;12.38;;;7.93;;
10617;SDS011;5356;43.526;26.534;2024-02-16T03:53:42;13.35;;;8.02;;
10617;SDS011;5356;43.526;26.534;2024-02-16T03:56:10;15.25;;;7.97;;
10617;SDS011;5356;43.526;26.534;2024-02-16T03:58:37;11.98;;;6.95;;
10617;SDS011;5356;43.526;26.534;2024-02-16T04:01:03;13.40;;;7.38;;
10617;SDS011;5356;43.526;26.534;2024-02-16T04:03:31;12.98;;;7.40;;
10617;SDS011;5356;43.526;26.534;2024-02-16T04:05:57;13.98;;;7.53;;
10617;SDS011;5356;43.526;26.534;2024-02-16T04:08:24;13.85;;;7.85;;
10617;SDS011;5356;43.526;26.534;2024-02-16T04:10:50;12.50;;;7.47;;
10617;SDS011;5356;43.526;26.534;2024-02-16T04:13:15;15.23;;;7.90;;
10617;SDS011;5356;43.526;26.534;2024-02-16T04:15:41;17.77;;;8.70;;
10617;SDS011;5356;43.526;26.534;2024-02-16T04:18:07;17.20;;;7.05;;
10617;SDS011;5356;43.526;26.534;2024-02-16T04:20:32;11.48;;;7.63;;
10617;SDS011;5356;43.526;26.534;2024-02-16T04:22:58;14.90;;;7.65;;
10617;SDS011;5356;43.526;26.534;2024-02-16T04:25:23;13.88;;;7.07;;
10617;SDS011;5356;43.526;26.534;2024-02-16T04:27:48;15.02;;;7.35;;
10617;SDS011;5356;43.526;26.534;2024-02-16T04:30:14;14.27;;;7.68;;
10617;SDS011;5356;43.526;26.534;2024-02-16T04:32:39;14.43;;;7.97;;
10617;SDS011;5356;43.526;26.534;2024-02-16T04:35:05;16.40;;;8.45;;
10617;SDS011;5356;43.526;26.534;2024-02-16T04:37:30;14.50;;;8.32;;
10617;SDS011;5356;43.526;26.534;2024-02-16T04:39:56;13.48;;;7.32;;
10617;SDS011;5356;43.526;26.534;2024-02-16T04:42:21;15.05;;;7.45;;
10617;SDS011;5356;43.526;26.534;2024-02-16T04:44:47;11.82;;;7.35;;
10617;SDS011;5356;43.526;26.534;2024-02-16T04:47:13;13.90;;;7.57;;
10617;SDS011;5356;43.526;26.534;2024-02-16T04:49:39;17.58;;;9.13;;
10617;SDS011;5356;43.526;26.534;2024-02-16T04:52:04;16.58;;;7.65;;
10617;SDS011;5356;43.526;26.534;2024-02-16T04:54:30;17.48;;;9.10;;
10617;SDS011;5356;43.526;26.534;2024-02-16T04:56:55;15.82;;;8.40;;
10617;SDS011;5356;43.526;26.534;2024-02-16T04:59:21;15.35;;;8.85;;
10617;SDS011;5356;43.526;26.534;2024-02-16T05:01:47;15.15;;;9.10;;
10617;SDS011;5356;43.526;26.534;2024-02-16T05:04:13;21.65;;;10.98;;
10617;SDS011;5356;43.526;26.534;2024-02-16T05:06:42;21.35;;;10.85;;
10617;SDS011;5356;43.526;26.534;2024-02-16T05:09:08;18.83;;;11.38;;
10617;SDS011;5356;43.526;26.534;2024-02-16T05:11:33;22.63;;;12.52;;
10617;SDS011;5356;43.526;26.534;2024-02-16T05:13:59;20.50;;;11.05;;
10617;SDS011;5356;43.526;26.534;2024-02-16T05:16:25;17.20;;;8.90;;
10617;SDS011;5356;43.526;26.534;2024-02-16T05:18:50;15.25;;;8.75;;
10617;SDS011;5356;43.526;26.534;2024-02-16T05:21:16;18.10;;;8.98;;
10617;SDS011;5356;43.526;26.534;2024-02-16T05:23:42;16.23;;;7.75;;
10617;SDS011;5356;43.526;26.534;2024-02-16T05:26:07;13.85;;;8.23;;
10617;SDS011;5356;43.526;26.534;2024-02-16T05:28:32;16.05;;;8.23;;
10617;SDS011;5356;43.526;26.534;2024-02-16T05:31:00;19.70;;;8.32;;
10617;SDS011;5356;43.526;26.534;2024-02-16T05:33:37;16.60;;;8.57;;
10617;SDS011;5356;43.526;26.534;2024-02-16T05:36:03;15.00;;;8.25;;
10617;SDS011;5356;43.526;26.534;2024-02-16T05:38:28;18.45;;;8.18;;
10617;SDS011;5356;43.526;26.534;2024-02-16T05:40:57;13.68;;;7.97;;
10617;SDS011;5356;43.526;26.534;2024-02-16T05:43:23;17.25;;;9.25;;
10617;SDS011;5356;43.526;26.534;2024-02-16T05:45:49;18.55;;;8.00;;
10617;SDS011;5356;43.526;26.534;2024-02-16T05:48:15;14.88;;;7.90;;
10617;SDS011;5356;43.526;26.534;2024-02-16T05:50:40;17.52;;;9.13;;
10617;SDS011;5356;43.526;26.534;2024-02-16T05:53:06;23.65;;;11.55;;
10617;SDS011;5356;43.526;26.534;2024-02-16T05:55:34;18.77;;;10.40;;
10617;SDS011;5356;43.526;26.534;2024-02-16T05:58:00;18.75;;;9.52;;
10617;SDS011;5356;43.526;26.534;2024-02-16T06:00:25;18.00;;;9.13;;
10617;SDS011;5356;43.526;26.534;2024-02-16T06:02:52;14.38;;;8.90;;
10617;SDS011;5356;43.526;26.534;2024-02-16T06:05:18;16.77;;;8.27;;
10617;SDS011;5356;43.526;26.534;2024-02-16T06:07:45;14.85;;;7.60;;
10617;SDS011;5356;43.526;26.534;2024-02-16T06:10:10;18.63;;;10.18;;
10617;SDS011;5356;43.526;26.534;2024-02-16T06:12:37;21.58;;;10.70;;
10617;SDS011;5356;43.526;26.534;2024-02-16T06:15:05;16.90;;;8.30;;
10617;SDS011;5356;43.526;26.534;2024-02-16T06:17:31;13.35;;;8.63;;
10617;SDS011;5356;43.526;26.534;2024-02-16T06:19:57;18.55;;;8.38;;
10617;SDS011;5356;43.526;26.534;2024-02-16T06:22:22;17.70;;;8.05;;
10617;SDS011;5356;43.526;26.534;2024-02-16T06:24:49;17.48;;;8.68;;
10617;SDS011;5356;43.526;26.534;2024-02-16T06:27:14;22.17;;;10.85;;
10617;SDS011;5356;43.526;26.534;2024-02-16T06:29:40;18.50;;;10.23;;
10617;SDS011;5356;43.526;26.534;2024-02-16T06:32:06;21.48;;;9.65;;
10617;SDS011;5356;43.526;26.534;2024-02-16T06:34:32;29.50;;;11.88;;
10617;SDS011;5356;43.526;26.534;2024-02-16T06:36:58;17.20;;;9.73;;
10617;SDS011;5356;43.526;26.534;2024-02-16T06:39:23;28.08;;;11.38;;
10617;SDS011;5356;43.526;26.534;2024-02-16T06:41:49;22.10;;;9.25;;
10617;SDS011;5356;43.526;26.534;2024-02-16T06:44:15;19.52;;;10.23;;
10617;SDS011;5356;43.526;26.534;2024-02-16T06:46:42;16.15;;;9.25;;
10617;SDS011;5356;43.526;26.534;2024-02-16T06:49:07;25.60;;;10.77;;
10617;SDS011;5356;43.526;26.534;2024-02-16T06:51:33;35.95;;;13.35;;
10617;SDS011;5356;43.526;26.534;2024-02-16T06:53:58;17.27;;;8.82;;
10617;SDS011;5356;43.526;26.534;2024-02-16T06:56:24;28.05;;;11.05;;
10617;SDS011;5356;43.526;26.534;2024-02-16T06:58:50;24.08;;;10.70;;
10617;SDS011;5356;43.526;26.534;2024-02-16T07:01:15;17.40;;;9.93;;
10617;SDS011;5356;43.526;26.534;2024-02-16T07:03:42;18.65;;;8.90;;
10617;SDS011;5356;43.526;26.534;2024-02-16T07:06:08;15.20;;;8.48;;
10617;SDS011;5356;43.526;26.534;2024-02-16T07:08:41;23.15;;;11.70;;
10617;SDS011;5356;43.526;26.534;2024-02-16T07:11:08;19.15;;;10.05;;
10617;SDS011;5356;43.526;26.534;2024-02-16T07:13:37;22.80;;;10.75;;
10617;SDS011;5356;43.526;26.534;2024-02-16T07:16:03;20.48;;;8.98;;
10617;SDS011;5356;43.526;26.534;2024-02-16T07:18:29;25.23;;;10.55;;
10617;SDS011;5356;43.526;26.534;2024-02-16T07:20:55;18.40;;;10.43;;
10617;SDS011;5356;43.526;26.534;2024-02-16T07:23:21;44.50;;;17.17;;
10617;SDS011;5356;43.526;26.534;2024-02-16T07:25:47;24.92;;;11.45;;
10617;SDS011;5356;43.526;26.534;2024-02-16T07:28:14;20.85;;;10.25;;
10617;SDS011;5356;43.526;26.534;2024-02-16T07:30:39;19.73;;;10.43;;
10617;SDS011;5356;43.526;26.534;2024-02-16T07:33:05;17.25;;;9.27;;
10617;SDS011;5356;43.526;26.534;2024-02-16T07:35:32;16.95;;;9.32;;
10617;SDS011;5356;43.526;26.534;2024-02-16T07:37:58;21.90;;;10.77;;
10617;SDS011;5356;43.526;26.534;2024-02-16T07:40:23;17.38;;;10.73;;
10617;SDS011;5356;43.526;26.534;2024-02-16T07:42:49;15.32;;;8.75;;
10617;SDS011;5356;43.526;26.534;2024-02-16T07:45:14;17.50;;;9.88;;
10617;SDS011;5356;43.526;26.534;2024-02-16T07:47:40;16.17;;;8.88;;
10617;SDS011;5356;43.526;26.534;2024-02-16T07:50:06;18.85;;;9.63;;
10617;SDS011;5356;43.526;26.534;2024-02-16T07:52:32;17.10;;;9.32;;
10617;SDS011;5356;43.526;26.534;2024-02-16T07:54:58;15.98;;;9.07;;
10617;SDS011;5356;43.526;26.534;2024-02-16T07:57:24;18.88;;;9.32;;
10617;SDS011;5356;43.526;26.534;2024-02-16T07:59:49;19.73;;;9.48;;
10617;SDS011;5356;43.526;26.534;2024-02-16T08:02:15;17.50;;;9.90;;
10617;SDS011;5356;43.526;26.534;2024-02-16T08:04:42;21.25;;;10.45;;
10617;SDS011;5356;43.526;26.534;2024-02-16T08:07:11;22.08;;;11.45;;
10617;SDS011;5356;43.526;26.534;2024-02-16T08:09:37;29.35;;;12.55;;
10617;SDS011;5356;43.526;26.534;2024-02-16T08:12:02;19.75;;;10.88;;
10617;SDS011;5356;43.526;26.534;2024-02-16T08:14:30;17.75;;;10.65;;
10617;SDS011;5356;43.526;26.534;2024-02-16T08:16:57;26.00;;;11.45;;
10617;SDS011;5356;43.526;26.534;2024-02-16T08:19:23;28.42;;;13.93;;
10617;SDS011;5356;43.526;26.534;2024-02-16T08:21:48;33.85;;;15.32;;
10617;SDS011;5356;43.526;26.534;2024-02-16T08:24:14;19.77;;;9.60;;
10617;SDS011;5356;43.526;26.534;2024-02-16T08:26:39;17.42;;;8.85;;
10617;SDS011;5356;43.526;26.534;2024-02-16T08:29:05;17.90;;;9.30;;
10617;SDS011;5356;43.526;26.534;2024-02-16T08:31:30;17.35;;;8.30;;
10617;SDS011;5356;43.526;26.534;2024-02-16T08:33:56;17.13;;;8.82;;
10617;SDS011;5356;43.526;26.534;2024-02-16T08:36:22;19.70;;;10.98;;
10617;SDS011;5356;43.526;26.534;2024-02-16T08:38:53;18.77;;;10.48;;
10617;SDS011;5356;43.526;26.534;2024-02-16T08:41:18;16.95;;;10.32;;
10617;SDS011;5356;43.526;26.534;2024-02-16T08:43:44;18.23;;;9.93;;
10617;SDS011;5356;43.526;26.534;2024-02-16T08:46:09;21.33;;;9.23;;
10617;SDS011;5356;43.526;26.534;2024-02-16T08:48:35;22.25;;;10.20;;
10617;SDS011;5356;43.526;26.534;2024-02-16T08:51:01;21.40;;;9.65;;
10617;SDS011;5356;43.526;26.534;2024-02-16T08:53:27;17.98;;;10.38;;
10617;SDS011;5356;43.526;26.534;2024-02-16T08:55:52;17.45;;;9.65;;
10617;SDS011;5356;43.526;26.534;2024-02-16T08:58:18;41.80;;;14.93;;
10617;SDS011;5356;43.526;26.534;2024-02-16T09:00:43;25.75;;;11.00;;
10617;SDS011;5356;43.526;26.534;2024-02-16T09:03:09;29.60;;;11.75;;
10617;SDS011;5356;43.526;26.534;2024-02-16T09:05:34;25.00;;;12.05;;
10617;SDS011;5356;43.526;26.534;2024-02-16T09:08:00;23.17;;;10.85;;
10617;SDS011;5356;43.526;26.534;2024-02-16T09:10:27;21.95;;;10.70;;
10617;SDS011;5356;43.526;26.534;2024-02-16T09:12:52;22.83;;;9.77;;
10617;SDS011;5356;43.526;26.534;2024-02-16T09:15:18;15.68;;;8.93;;
10617;SDS011;5356;43.526;26.534;2024-02-16T09:17:43;16.33;;;10.48;;
10617;SDS011;5356;43.526;26.534;2024-02-16T09:20:10;21.30;;;11.43;;
10617;SDS011;5356;43.526;26.534;2024-02-16T09:22:36;20.98;;;10.25;;
10617;SDS011;5356;43.526;26.534;2024-02-16T09:25:04;15.30;;;8.43;;
10617;SDS011;5356;43.526;26.534;2024-02-16T09:27:29;20.45;;;9.55;;
10617;SDS011;5356;43.526;26.534;2024-02-16T09:29:55;23.00;;;9.43;;
10617;SDS011;5356;43.526;26.534;2024-02-16T09:32:20;33.95;;;12.27;;
10617;SDS011;5356;43.526;26.534;2024-02-16T09:34:46;24.15;;;10.23;;
10617;SDS011;5356;43.526;26.534;2024-02-16T09:37:11;21.60;;;10.35;;
10617;SDS011;5356;43.526;26.534;2024-02-16T09:39:37;22.95;;;10.07;;
10617;SDS011;5356;43.526;26.534;2024-02-16T09:42:03;21.17;;;9.82;;
10617;SDS011;5356;43.526;26.534;2024-02-16T09:44:29;14.25;;;8.35;;
10617;SDS011;5356;43.526;26.534;2024-02-16T09:46:56;20.23;;;8.32;;
10617;SDS011;5356;43.526;26.534;2024-02-16T09:49:24;17.80;;;8.75;;
10617;SDS011;5356;43.526;26.534;2024-02-16T09:51:49;16.73;;;9.43;;
10617;SDS011;5356;43.526;26.534;2024-02-16T09:54:15;22.35;;;12.20;;
10617;SDS011;5356;43.526;26.534;2024-02-16T09:56:41;17.02;;;9.55;;
10617;SDS011;5356;43.526;26.534;2024-02-16T09:59:07;19.20;;;9.52;;
10617;SDS011;5356;43.526;26.534;2024-02-16T10:01:33;18.65;;;8.43;;
10617;SDS011;5356;43.526;26.534;2024-02-16T10:04:05;20.48;;;9.43;;
10617;SDS011;5356;43.526;26.534;2024-02-16T10:06:32;18.13;;;9.98;;
10617;SDS011;5356;43.526;26.534;2024-02-16T10:08:58;22.70;;;10.20;;
10617;SDS011;5356;43.526;26.534;2024-02-16T10:11:24;18.13;;;9.00;;
10617;SDS011;5356;43.526;26.534;2024-02-16T10:13:56;15.95;;;8.38;;
10617;SDS011;5356;43.526;26.534;2024-02-16T10:16:26;17.52;;;10.32;;
10617;SDS011;5356;43.526;26.534;2024-02-16T10:18:55;19.65;;;9.55;;
10617;SDS011;5356;43.526;26.534;2024-02-16T10:21:27;29.58;;;12.48;;
10617;SDS011;5356;43.526;26.534;2024-02-16T10:26:22;21.80;;;10.82;;
10617;SDS011;5356;43.526;26.534;2024-02-16T10:28:49;23.13;;;11.40;;
10617;SDS011;5356;43.526;26.534;2024-02-16T10:31:19;26.15;;;12.27;;
10617;SDS011;5356;43.526;26.534;2024-02-16T10:33:52;23.90;;;11.40;;
10617;SDS011;5356;43.526;26.534;2024-02-16T10:36:24;21.52;;;10.75;;
10617;SDS011;5356;43.526;26.534;2024-02-16T10:38:54;26.23;;;11.73;;
10617;SDS011;5356;43.526;26.534;2024-02-16T10:41:25;17.63;;;8.90;;
10617;SDS011;5356;43.526;26.534;2024-02-16T10:43:53;19.25;;;8.88;;
10617;SDS011;5356;43.526;26.534;2024-02-16T10:46:19;19.10;;;8.63;;
10617;SDS011;5356;43.526;26.534;2024-02-16T10:48:45;14.63;;;7.95;;
10617;SDS011;5356;43.526;26.534;2024-02-16T10:51:12;16.65;;;8.43;;
10617;SDS011;5356;43.526;26.534;2024-02-16T10:53:40;16.55;;;8.88;;
10617;SDS011;5356;43.526;26.534;2024-02-16T10:56:07;16.20;;;8.23;;
10617;SDS011;5356;43.526;26.534;2024-02-16T10:58:33;17.10;;;8.85;;
10617;SDS011;5356;43.526;26.534;2024-02-16T11:01:07;19.98;;;8.77;;
10617;SDS011;5356;43.526;26.534;2024-02-16T11:03:37;24.08;;;11.57;;
10617;SDS011;5356;43.526;26.534;2024-02-16T11:06:11;26.42;;;10.35;;
10617;SDS011;5356;43.526;26.534;2024-02-16T11:08:41;15.40;;;8.50;;
10617;SDS011;5356;43.526;26.534;2024-02-16T11:11:07;15.05;;;7.95;;
10617;SDS011;5356;43.526;26.534;2024-02-16T11:13:35;18.98;;;9.18;;
10617;SDS011;5356;43.526;26.534;2024-02-16T11:16:02;25.40;;;10.93;;
10617;SDS011;5356;43.526;26.534;2024-02-16T11:18:38;20.25;;;10.02;;
10617;SDS011;5356;43.526;26.534;2024-02-16T11:21:06;19.20;;;9.60;;
10617;SDS011;5356;43.526;26.534;2024-02-16T11:23:36;25.73;;;10.27;;
10617;SDS011;5356;43.526;26.534;2024-02-16T11:26:05;25.05;;;9.55;;
10617;SDS011;5356;43.526;26.534;2024-02-16T11:28:38;24.15;;;11.68;;
10617;SDS011;5356;43.526;26.534;2024-02-16T11:31:05;24.17;;;11.23;;
10617;SDS011;5356;43.526;26.534;2024-02-16T11:33:32;17.55;;;9.07;;
10617;SDS011;5356;43.526;26.534;2024-02-16T11:35:59;22.08;;;10.27;;
10617;SDS011;5356;43.526;26.534;2024-02-16T11:38:26;32.92;;;13.38;;
10617;SDS011;5356;43.526;26.534;2024-02-16T11:41:02;30.27;;;11.90;;
10617;SDS011;5356;43.526;26.534;2024-02-16T11:43:29;23.27;;;10.10;;
10617;SDS011;5356;43.526;26.534;2024-02-16T11:45:55;18.63;;;9.30;;
10617;SDS011;5356;43.526;26.534;2024-02-16T11:51:00;16.38;;;8.65;;
10617;SDS011;5356;43.526;26.534;2024-02-16T11:53:28;24.67;;;11.35;;
10617;SDS011;5356;43.526;26.534;2024-02-16T11:55:57;20.25;;;9.02;;
10617;SDS011;5356;43.526;26.534;2024-02-16T11:58:23;17.92;;;9.35;;
10617;SDS011;5356;43.526;26.534;2024-02-16T12:00:49;28.30;;;11.50;;
10617;SDS011;5356;43.526;26.534;2024-02-16T12:03:22;31.85;;;13.23;;
10617;SDS011;5356;43.526;26.534;2024-02-16T12:05:56;42.63;;;14.18;;
10617;SDS011;5356;43.526;26.534;2024-02-16T12:08:23;32.65;;;13.15;;
10617;SDS011;5356;43.526;26.534;2024-02-16T12:10:56;23.70;;;10.30;;
10617;SDS011;5356;43.526;26.534;2024-02-16T12:13:22;22.58;;;11.63;;
10617;SDS011;5356;43.526;26.534;2024-02-16T12:15:48;21.65;;;10.55;;
10617;SDS011;5356;43.526;26.534;2024-02-16T12:23:44;23.30;;;11.43;;
10617;SDS011;5356;43.526;26.534;2024-02-16T12:26:10;20.40;;;10.45;;
10617;SDS011;5356;43.526;26.534;2024-02-16T12:28:35;21.90;;;11.10;;
10617;SDS011;5356;43.526;26.534;2024-02-16T12:31:01;25.38;;;12.70;;
10617;SDS011;5356;43.526;26.534;2024-02-16T12:33:27;19.60;;;10.63;;
10617;SDS011;5356;43.526;26.534;2024-02-16T12:35:53;17.83;;;9.35;;
10617;SDS011;5356;43.526;26.534;2024-02-16T12:38:19;22.33;;;10.48;;
10617;SDS011;5356;43.526;26.534;2024-02-16T12:40:51;21.67;;;10.30;;
10617;SDS011;5356;43.526;26.534;2024-02-16T12:43:16;20.35;;;10.38;;
10617;SDS011;5356;43.526;26.534;2024-02-16T12:45:43;20.80;;;11.50;;
10617;SDS011;5356;43.526;26.534;2024-02-16T12:48:09;33.10;;;13.63;;
10617;SDS011;5356;43.526;26.534;2024-02-16T12:50:39;27.45;;;12.15;;
10617;SDS011;5356;43.526;26.534;2024-02-16T12:53:06;26.08;;;11.10;;
10617;SDS011;5356;43.526;26.534;2024-02-16T12:55:32;22.35;;;10.90;;
10617;SDS011;5356;43.526;26.534;2024-02-16T12:57:58;23.65;;;10.35;;
10617;SDS011;5356;43.526;26.534;2024-02-16T13:00:23;22.35;;;11.70;;
10617;SDS011;5356;43.526;26.534;2024-02-16T13:02:48;19.27;;;9.90;;
10617;SDS011;5356;43.526;26.534;2024-02-16T13:05:14;42.03;;;13.48;;
10617;SDS011;5356;43.526;26.534;2024-02-16T13:07:39;32.00;;;12.00;;
10617;SDS011;5356;43.526;26.534;2024-02-16T13:10:07;31.58;;;11.77;;
10617;SDS011;5356;43.526;26.534;2024-02-16T13:12:33;26.38;;;12.23;;
10617;SDS011;5356;43.526;26.534;2024-02-16T13:14:58;19.02;;;10.15;;
10617;SDS011;5356;43.526;26.534;2024-02-16T13:17:24;21.70;;;10.40;;
10617;SDS011;5356;43.526;26.534;2024-02-16T13:19:51;21.27;;;10.07;;
10617;SDS011;5356;43.526;26.534;2024-02-16T13:22:17;20.92;;;9.52;;
10617;SDS011;5356;43.526;26.534;2024-02-16T13:24:43;24.05;;;10.60;;
10617;SDS011;5356;43.526;26.534;2024-02-16T13:27:08;23.33;;;11.00;;
10617;SDS011;5356;43.526;26.534;2024-02-16T13:29:34;22.65;;;12.05;;
10617;SDS011;5356;43.526;26.534;2024-02-16T13:32:00;28.00;;;10.30;;
10617;SDS011;5356;43.526;26.534;2024-02-16T13:34:26;28.58;;;13.85;;
10617;SDS011;5356;43.526;26.534;2024-02-16T13:36:52;22.30;;;11.50;;
10617;SDS011;5356;43.526;26.534;2024-02-16T13:39:18;29.13;;;13.13;;
10617;SDS011;5356;43.526;26.534;2024-02-16T13:41:44;22.05;;;11.88;;
10617;SDS011;5356;43.526;26.534;2024-02-16T13:44:12;31.23;;;11.90;;
10617;SDS011;5356;43.526;26.534;2024-02-16T13:46:38;27.40;;;11.32;;
10617;SDS011;5356;43.526;26.534;2024-02-16T13:49:03;22.33;;;11.00;;
10617;SDS011;5356;43.526;26.534;2024-02-16T13:51:29;25.35;;;12.27;;
10617;SDS011;5356;43.526;26.534;2024-02-16T13:53:54;30.80;;;12.27;;
10617;SDS011;5356;43.526;26.534;2024-02-16T13:56:19;24.92;;;10.65;;
10617;SDS011;5356;43.526;26.534;2024-02-16T13:58:45;28.00;;;11.65;;
10617;SDS011;5356;43.526;26.534;2024-02-16T14:01:12;28.10;;;11.73;;
10617;SDS011;5356;43.526;26.534;2024-02-16T14:03:40;21.23;;;9.57;;
10617;SDS011;5356;43.526;26.534;2024-02-16T14:06:06;30.70;;;12.23;;
10617;SDS011;5356;43.526;26.534;2024-02-16T14:08:34;23.10;;;11.55;;
10617;SDS011;5356;43.526;26.534;2024-02-16T14:11:01;30.88;;;12.40;;
10617;SDS011;5356;43.526;26.534;2024-02-16T14:13:27;22.30;;;9.85;;
10617;SDS011;5356;43.526;26.534;2024-02-16T14:15:52;29.30;;;11.00;;
10617;SDS011;5356;43.526;26.534;2024-02-16T14:18:18;24.80;;;11.10;;
10617;SDS011;5356;43.526;26.534;2024-02-16T14:20:44;26.58;;;12.07;;
10617;SDS011;5356;43.526;26.534;2024-02-16T14:23:10;25.45;;;11.00;;
10617;SDS011;5356;43.526;26.534;2024-02-16T14:25:36;27.80;;;12.93;;
10617;SDS011;5356;43.526;26.534;2024-02-16T14:28:03;27.65;;;13.05;;
10617;SDS011;5356;43.526;26.534;2024-02-16T14:30:29;31.92;;;13.57;;
10617;SDS011;5356;43.526;26.534;2024-02-16T14:32:54;25.92;;;11.13;;
10617;SDS011;5356;43.526;26.534;2024-02-16T14:35:20;25.27;;;13.07;;